Time;durP1;ratioP1;P1;durP2;ratioP2;P2;SDS_P1;SDS_P2;PMS_P1;PMS_P2;Temp;Humidity;BMP_temperature;BMP_pressure;BME280_temperature;BME280_humidity;BME280_pressure;Samples;Min_cycle;Max_cycle;Signal;HPM_P1;HPM_P2
2022/06/28 06:44:19;;;;;;;26.57;24.57;;;18.30;56.70;;;;;;5071716;28;20568;-77
2022/06/28 06:46:45;;;;;;;23.23;21.67;;;18.30;56.10;;;;;;5059415;28;20936;-77
2022/06/28 06:49:14;;;;;;;24.07;22.97;;;18.40;57.90;;;;;;5055907;28;20183;-77
2022/06/28 06:51:44;;;;;;;25.10;23.50;;;18.50;57.40;;;;;;5055841;28;20183;-77
2022/06/28 06:54:10;;;;;;;26.17;24.00;;;18.60;56.10;;;;;;5055454;28;20769;-77
2022/06/28 06:56:36;;;;;;;25.20;24.00;;;18.60;55.40;;;;;;5072110;28;20397;-78
2022/06/28 06:59:02;;;;;;;26.23;24.87;;;18.60;54.20;;;;;;5054968;28;20426;-77
2022/06/28 07:01:33;;;;;;;24.90;23.70;;;18.50;54.70;;;;;;5054012;28;20453;-76
2022/06/28 07:04:08;;;;;;;23.67;22.57;;;18.40;55.40;;;;;;5072693;28;20171;-77
2022/06/28 07:06:34;;;;;;;24.73;23.30;;;18.40;55.50;;;;;;5054826;28;20421;-76
2022/06/28 07:09:00;;;;;;;23.43;22.07;;;18.40;56.70;;;;;;5054569;28;20777;-75
2022/06/28 07:11:26;;;;;;;22.50;21.40;;;18.30;56.70;;;;;;5054336;28;20414;-77
2022/06/28 07:13:52;;;;;;;25.40;23.90;;;18.40;57.00;;;;;;5054551;28;20488;-77
2022/06/28 07:16:18;;;;;;;25.70;23.20;;;18.50;57.50;;;;;;5054516;28;20643;-74
2022/06/28 07:18:43;;;;;;;23.97;22.80;;;18.50;57.50;;;;;;5054549;28;20414;-77
2022/06/28 07:21:10;;;;;;;24.80;23.30;;;18.60;57.10;;;;;;5054379;28;20217;-76
2022/06/28 07:23:37;;;;;;;23.73;22.33;;;18.60;56.30;;;;;;5054557;28;20538;-77
2022/06/28 07:26:03;;;;;;;24.47;23.27;;;18.70;57.10;;;;;;5054329;28;20500;-78
2022/06/28 07:28:32;;;;;;;24.77;23.57;;;18.70;56.30;;;;;;5072297;28;20492;-75
2022/06/28 07:30:58;;;;;;;23.70;22.50;;;18.70;56.40;;;;;;5054286;28;20672;-77
2022/06/28 07:33:23;;;;;;;25.50;24.30;;;18.70;56.80;;;;;;5054374;28;20434;-78
2022/06/28 07:35:49;;;;;;;24.10;23.00;;;18.60;56.00;;;;;;5054374;28;20183;-77
2022/06/28 07:38:14;;;;;;;26.57;24.87;;;18.70;56.50;;;;;;5054351;28;20183;-76
2022/06/28 07:40:40;;;;;;;25.05;23.75;;;18.80;56.50;;;;;;5053102;28;20454;-77
2022/06/28 07:43:06;;;;;;;23.93;22.53;;;18.90;56.40;;;;;;5072389;28;20198;-76
2022/06/28 07:45:36;;;;;;;23.43;22.23;;;18.90;55.70;;;;;;5054379;28;20236;-76
2022/06/28 07:48:05;;;;;;;24.07;22.73;;;18.90;55.00;;;;;;5053996;28;20179;-75
2022/06/28 07:53:16;;;;;;;24.57;23.27;;;18.90;55.50;;;;;;5055182;28;20945;-77
2022/06/28 07:55:41;;;;;;;26.07;24.67;;;18.90;55.70;;;;;;5051883;28;20407;-76
2022/06/28 07:58:07;;;;;;;26.20;24.90;;;19.10;55.30;;;;;;5034154;28;20195;-77
2022/06/28 08:00:33;;;;;;;23.70;22.60;;;19.10;54.70;;;;;;5056035;28;20211;-77
2022/06/28 08:02:59;;;;;;;23.13;22.03;;;19.20;53.80;;;;;;5071936;28;20206;-78
2022/06/28 08:05:25;;;;;;;28.43;26.53;;;19.30;52.70;;;;;;5054452;28;20495;-77
2022/06/28 08:07:51;;;;;;;24.73;23.40;;;19.20;53.00;;;;;;5072321;28;20623;-77
2022/06/28 08:10:16;;;;;;;23.67;22.57;;;19.30;54.10;;;;;;5054021;28;20449;-78
2022/06/28 08:12:43;;;;;;;23.67;22.57;;;19.30;52.10;;;;;;5058075;28;20187;-78
2022/06/28 08:15:09;;;;;;;21.90;21.00;;;19.40;51.10;;;;;;5059004;28;20944;-78
2022/06/28 08:17:35;;;;;;;23.30;22.10;;;19.30;51.90;;;;;;5059264;28;20467;-77
2022/06/28 08:20:01;;;;;;;23.43;22.33;;;19.40;52.30;;;;;;5058475;28;20477;-77
2022/06/28 08:22:27;;;;;;;23.40;22.20;;;19.40;52.10;;;;;;5065730;28;20821;-76
2022/06/28 08:24:53;;;;;;;23.50;22.33;;;19.50;52.00;;;;;;5056910;28;20587;-78
2022/06/28 08:27:19;;;;;;;22.93;21.93;;;19.60;50.10;;;;;;5038439;28;20419;-76
2022/06/28 08:29:46;;;;;;;22.53;21.60;;;19.70;50.10;;;;;;5037822;28;20238;-75
2022/06/28 08:32:12;;;;;;;24.33;23.00;;;19.80;50.20;;;;;;5037817;28;20501;-76
2022/06/28 08:34:39;;;;;;;23.27;22.27;;;19.80;49.40;;;;;;5038037;28;20422;-78
2022/06/28 08:37:05;;;;;;;21.77;20.87;;;19.90;49.50;;;;;;5056146;28;20418;-75
2022/06/28 08:39:31;;;;;;;22.77;21.77;;;19.80;50.20;;;;;;5037825;28;20417;-76
2022/06/28 08:42:04;;;;;;;22.83;21.80;;;20.00;50.40;;;;;;5037424;28;20476;-75
2022/06/28 08:44:36;;;;;;;23.40;22.20;;;20.10;50.30;;;;;;5037701;28;20411;-76
2022/06/28 08:47:03;;;;;;;22.83;21.63;;;20.10;48.30;;;;;;5037426;28;20422;-76
2022/06/28 08:50:00;;;;;;;23.60;22.60;;;20.20;48.90;;;;;;5037499;28;20422;-76
2022/06/28 08:52:26;;;;;;;24.10;22.77;;;20.20;47.90;;;;;;5047178;28;20424;-75
2022/06/28 08:54:52;;;;;;;24.30;23.20;;;20.10;47.70;;;;;;5056988;28;20417;-78
2022/06/28 08:57:54;;;;;;;24.97;23.90;;;20.00;48.50;;;;;;5057174;28;20183;-75
2022/06/28 09:00:20;;;;;;;24.08;22.98;;;20.10;48.50;;;;;;5047741;28;20469;-73
2022/06/28 09:02:47;;;;;;;24.70;23.70;;;20.10;47.30;;;;;;5040690;28;20291;-77
2022/06/28 09:05:15;;;;;;;24.10;23.00;;;20.20;48.80;;;;;;5057115;28;20493;-78
2022/06/28 09:07:41;;;;;;;32.47;30.53;;;20.30;48.00;;;;;;5074824;28;20171;-77
2022/06/28 09:10:07;;;;;;;29.67;27.50;;;20.40;46.40;;;;;;5074882;28;20740;-78
2022/06/28 09:12:33;;;;;;;24.43;23.33;;;20.40;45.20;;;;;;5057188;28;20417;-79
2022/06/28 09:15:04;;;;;;;25.03;23.83;;;20.40;45.90;;;;;;5056272;28;20426;-78
2022/06/28 09:17:31;;;;;;;25.03;23.97;;;20.40;45.60;;;;;;5058353;28;20429;-77
2022/06/28 09:23:30;;;;;;;24.13;23.13;;;20.40;45.30;;;;;;5054151;28;20990;-76
2022/06/28 09:26:08;;;;;;;27.50;25.80;;;20.40;45.00;;;;;;5036305;28;20442;-76
2022/06/28 09:28:39;;;;;;;24.97;23.97;;;20.40;45.30;;;;;;5036895;28;20791;-77
2022/06/28 09:31:28;;;;;;;24.10;23.10;;;20.60;45.00;;;;;;5054550;28;20501;-75
2022/06/28 09:34:04;;;;;;;24.27;23.07;;;20.60;44.50;;;;;;5036593;28;20418;-76
2022/06/28 09:36:38;;;;;;;23.87;22.77;;;20.60;45.30;;;;;;5036586;28;20505;-77
2022/06/28 09:39:11;;;;;;;23.37;22.37;;;20.70;45.40;;;;;;5036619;28;20425;-75
2022/06/28 09:41:42;;;;;;;22.47;21.53;;;20.80;44.70;;;;;;5039778;28;20502;-74
2022/06/28 09:46:43;;;;;;;23.63;22.63;;;20.90;43.30;;;;;;5053897;28;20481;-76
2022/06/28 09:49:32;;;;;;;23.90;22.80;;;21.00;44.00;;;;;;5038837;28;20429;-76
2022/06/28 09:52:04;;;;;;;23.00;22.00;;;21.00;43.70;;;;;;5054915;28;20395;-76
2022/06/28 09:54:32;;;;;;;23.20;22.30;;;21.00;42.40;;;;;;5058510;28;20403;-77
2022/06/28 09:56:59;;;;;;;22.23;21.33;;;21.00;42.50;;;;;;5054810;28;20456;-77
2022/06/28 09:59:27;;;;;;;22.67;21.77;;;21.00;42.70;;;;;;5036615;28;20415;-77
2022/06/28 10:01:55;;;;;;;22.50;21.50;;;21.20;42.00;;;;;;5035779;28;20452;-75
2022/06/28 10:04:23;;;;;;;22.53;21.63;;;21.20;41.40;;;;;;5036213;28;20575;-78
2022/06/28 10:06:50;;;;;;;21.93;20.93;;;21.20;40.50;;;;;;5035931;28;20793;-78
2022/06/28 10:09:19;;;;;;;21.37;20.47;;;21.20;41.40;;;;;;5035863;28;20437;-78
2022/06/28 12:10:28;;;;;;;22.57;21.67;;;22.70;33.50;;;;;;4971129;28;20409;-78
2022/06/28 12:12:58;;;;;;;23.07;22.03;;;22.90;33.70;;;;;;4970796;28;20949;-76
2022/06/28 12:18:56;;;;;;;22.20;21.30;;;23.00;33.40;;;;;;4952190;29;20515;-75
2022/06/28 12:21:23;;;;;;;22.83;21.90;;;22.90;32.30;;;;;;4954447;28;20477;-75
2022/06/28 12:23:56;;;;;;;23.90;22.80;;;22.90;32.40;;;;;;4982230;28;20424;-76
2022/06/28 12:26:40;;;;;;;23.07;22.07;;;22.80;31.20;;;;;;5014212;28;20494;-76
2022/06/28 12:29:07;;;;;;;22.00;21.00;;;22.80;33.40;;;;;;5013586;28;20519;-76
2022/06/28 12:31:33;;;;;;;22.43;21.50;;;22.80;33.80;;;;;;5013996;28;20431;-76
2022/06/28 12:34:03;;;;;;;22.50;21.60;;;22.90;33.10;;;;;;5013551;28;20420;-75
2022/06/28 12:36:30;;;;;;;22.70;21.80;;;23.00;32.60;;;;;;5014447;28;20434;-80
2022/06/28 12:38:56;;;;;;;22.37;21.47;;;23.10;33.10;;;;;;5014004;28;20512;-79
2022/06/28 12:41:22;;;;;;;22.47;21.47;;;23.10;32.50;;;;;;5013800;28;20550;-78
2022/06/28 12:43:47;;;;;;;22.27;21.10;;;23.00;31.20;;;;;;5013739;28;20188;-76
2022/06/28 12:46:52;;;;;;;23.23;22.23;;;23.00;31.50;;;;;;5014135;28;20195;-79
2022/06/28 12:49:30;;;;;;;23.03;22.03;;;22.90;32.40;;;;;;4996296;28;20195;-78
2022/06/28 12:51:56;;;;;;;22.93;22.03;;;22.90;31.90;;;;;;5031466;28;20582;-77
2022/06/28 12:54:22;;;;;;;23.00;22.00;;;22.90;32.30;;;;;;5013869;28;20648;-79
2022/06/28 12:56:48;;;;;;;22.97;22.10;;;22.90;32.40;;;;;;5014087;28;20430;-80
2022/06/28 12:59:15;;;;;;;22.30;21.40;;;23.00;32.50;;;;;;5017907;28;20443;-79
2022/06/28 13:01:41;;;;;;;22.97;22.10;;;23.10;32.00;;;;;;5017044;28;20518;-78
2022/06/28 13:04:14;;;;;;;22.50;21.60;;;23.10;32.00;;;;;;5035247;28;20415;-80
2022/06/28 13:06:52;;;;;;;21.70;20.90;;;23.30;31.60;;;;;;5017513;28;20242;-79
2022/06/28 13:09:18;;;;;;;23.10;22.10;;;23.30;30.80;;;;;;5017593;28;20816;-79
2022/06/28 13:11:44;;;;;;;22.37;20.93;;;23.30;31.30;;;;;;5017021;28;20411;-79
